Amborovy Airport

Airport
ICAO code: 
FMNM
IATA Code: 
MJN
Summary
ICAO Region: 
AFI
Territory: 
Location: 
Amborovy, Boeny
Serving: 
Mahajanga
Elevation: 
87 ft
Coordinates: 
Aerial View: 
15° 40' 0.984" S, 46° 21' 6.012" E
Metar
Observation
FMNM 020300Z 12005KT 9999 FEW020CB 25/20 Q1013 NOSIG
Station
Majunga
Date/Time
2021-12-02 03:00:00
Wind direction
120°
Wind speed
05 kts
Lowest cloud amount
few clouds
Temperature
25°C
Dew point
20°C
Humidity
73%
QNH
1013 hPa
Weather condition
n/a

Amborovy Airport, also known as Philibert Tsiranana Airport, is an airport in Mahajanga, Madagascar.

Climatology

Tropical savanna climate (Köppen climate classification Aw)

Runways

Designator Length Width Surface Rops
14/32 2200 45 ASP No/No
Airport map: 
Aerial View: 

SKYbrary Partners:

Safety knowledge contributed by: